sensor_id;sensor_type;location;lat;lon;timestamp;P1;durP1;ratioP1;P2;durP2;ratioP2
18503;SDS011;9381;54.244;10.074;2023-04-03T00:04:52;4.23;;;2.63;;
18503;SDS011;9381;54.244;10.074;2023-04-03T00:09:52;4.35;;;2.38;;
18503;SDS011;9381;54.244;10.074;2023-04-03T00:14:53;4.63;;;2.70;;
18503;SDS011;9381;54.244;10.074;2023-04-03T00:19:53;7.20;;;2.67;;
18503;SDS011;9381;54.244;10.074;2023-04-03T00:24:53;3.88;;;2.47;;
18503;SDS011;9381;54.244;10.074;2023-04-03T00:29:54;2.70;;;2.50;;
18503;SDS011;9381;54.244;10.074;2023-04-03T00:34:54;7.35;;;2.40;;
18503;SDS011;9381;54.244;10.074;2023-04-03T00:39:54;3.85;;;2.28;;
18503;SDS011;9381;54.244;10.074;2023-04-03T00:49:55;4.37;;;2.43;;
18503;SDS011;9381;54.244;10.074;2023-04-03T00:54:58;4.37;;;2.33;;
18503;SDS011;9381;54.244;10.074;2023-04-03T01:00:03;6.57;;;2.43;;
18503;SDS011;9381;54.244;10.074;2023-04-03T01:05:07;5.80;;;2.60;;
18503;SDS011;9381;54.244;10.074;2023-04-03T01:10:09;7.90;;;2.50;;
18503;SDS011;9381;54.244;10.074;2023-04-03T01:15:14;5.17;;;2.60;;
18503;SDS011;9381;54.244;10.074;2023-04-03T01:25:33;3.80;;;2.07;;
18503;SDS011;9381;54.244;10.074;2023-04-03T01:30:36;5.10;;;1.80;;
18503;SDS011;9381;54.244;10.074;2023-04-03T01:35:42;3.23;;;2.07;;
18503;SDS011;9381;54.244;10.074;2023-04-03T01:40:43;4.05;;;2.00;;
18503;SDS011;9381;54.244;10.074;2023-04-03T01:45:43;5.40;;;2.30;;
18503;SDS011;9381;54.244;10.074;2023-04-03T01:50:43;5.90;;;2.20;;
18503;SDS011;9381;54.244;10.074;2023-04-03T01:55:43;4.72;;;2.55;;
18503;SDS011;9381;54.244;10.074;2023-04-03T02:00:44;3.40;;;2.40;;
18503;SDS011;9381;54.244;10.074;2023-04-03T02:05:44;5.03;;;2.37;;
18503;SDS011;9381;54.244;10.074;2023-04-03T02:10:48;4.13;;;2.50;;
18503;SDS011;9381;54.244;10.074;2023-04-03T02:15:50;5.10;;;3.03;;
18503;SDS011;9381;54.244;10.074;2023-04-03T02:20:50;5.97;;;2.53;;
18503;SDS011;9381;54.244;10.074;2023-04-03T02:25:50;4.03;;;2.53;;
18503;SDS011;9381;54.244;10.074;2023-04-03T02:30:51;4.63;;;2.40;;
18503;SDS011;9381;54.244;10.074;2023-04-03T02:35:54;3.75;;;2.72;;
18503;SDS011;9381;54.244;10.074;2023-04-03T02:41:02;7.07;;;3.00;;
18503;SDS011;9381;54.244;10.074;2023-04-03T02:46:07;7.10;;;2.80;;
18503;SDS011;9381;54.244;10.074;2023-04-03T02:51:07;5.53;;;3.50;;
18503;SDS011;9381;54.244;10.074;2023-04-03T02:56:07;5.65;;;3.50;;
18503;SDS011;9381;54.244;10.074;2023-04-03T03:01:08;4.85;;;2.95;;
18503;SDS011;9381;54.244;10.074;2023-04-03T03:06:09;6.70;;;3.20;;
18503;SDS011;9381;54.244;10.074;2023-04-03T03:11:11;5.60;;;2.97;;
18503;SDS011;9381;54.244;10.074;2023-04-03T03:16:11;4.30;;;3.00;;
18503;SDS011;9381;54.244;10.074;2023-04-03T03:21:12;6.53;;;3.00;;
18503;SDS011;9381;54.244;10.074;2023-04-03T03:26:12;3.77;;;2.90;;
18503;SDS011;9381;54.244;10.074;2023-04-03T03:31:13;5.00;;;3.33;;
18503;SDS011;9381;54.244;10.074;2023-04-03T03:36:15;3.70;;;2.80;;
18503;SDS011;9381;54.244;10.074;2023-04-03T03:41:15;7.65;;;3.03;;
18503;SDS011;9381;54.244;10.074;2023-04-03T03:46:15;4.65;;;2.72;;
18503;SDS011;9381;54.244;10.074;2023-04-03T03:51:15;4.07;;;2.58;;
18503;SDS011;9381;54.244;10.074;2023-04-03T03:56:16;6.87;;;3.80;;
18503;SDS011;9381;54.244;10.074;2023-04-03T04:01:16;5.22;;;3.10;;
18503;SDS011;9381;54.244;10.074;2023-04-03T04:06:17;16.47;;;4.10;;
18503;SDS011;9381;54.244;10.074;2023-04-03T04:11:17;6.53;;;3.28;;
18503;SDS011;9381;54.244;10.074;2023-04-03T04:16:18;10.00;;;5.50;;
18503;SDS011;9381;54.244;10.074;2023-04-03T04:21:19;7.10;;;3.97;;
18503;SDS011;9381;54.244;10.074;2023-04-03T04:26:19;8.93;;;5.45;;
18503;SDS011;9381;54.244;10.074;2023-04-03T04:31:20;11.63;;;7.13;;
18503;SDS011;9381;54.244;10.074;2023-04-03T04:36:20;8.93;;;6.40;;
18503;SDS011;9381;54.244;10.074;2023-04-03T04:41:21;11.48;;;5.75;;
18503;SDS011;9381;54.244;10.074;2023-04-03T04:46:22;6.37;;;4.57;;
18503;SDS011;9381;54.244;10.074;2023-04-03T04:51:23;9.77;;;4.87;;
18503;SDS011;9381;54.244;10.074;2023-04-03T04:56:23;7.78;;;3.80;;
18503;SDS011;9381;54.244;10.074;2023-04-03T05:01:23;6.60;;;3.58;;
18503;SDS011;9381;54.244;10.074;2023-04-03T05:06:24;8.60;;;3.87;;
18503;SDS011;9381;54.244;10.074;2023-04-03T05:11:24;5.97;;;3.50;;
18503;SDS011;9381;54.244;10.074;2023-04-03T05:16:25;6.27;;;3.73;;
18503;SDS011;9381;54.244;10.074;2023-04-03T05:21:26;6.23;;;3.70;;
18503;SDS011;9381;54.244;10.074;2023-04-03T05:26:30;6.53;;;3.87;;
18503;SDS011;9381;54.244;10.074;2023-04-03T05:31:30;7.63;;;4.03;;
18503;SDS011;9381;54.244;10.074;2023-04-03T05:36:31;7.90;;;3.80;;
18503;SDS011;9381;54.244;10.074;2023-04-03T05:41:31;8.00;;;3.83;;
18503;SDS011;9381;54.244;10.074;2023-04-03T05:46:31;5.70;;;3.78;;
18503;SDS011;9381;54.244;10.074;2023-04-03T05:51:34;6.32;;;4.00;;
18503;SDS011;9381;54.244;10.074;2023-04-03T05:56:35;9.60;;;4.37;;
18503;SDS011;9381;54.244;10.074;2023-04-03T06:01:36;9.73;;;5.70;;
18503;SDS011;9381;54.244;10.074;2023-04-03T06:06:52;10.90;;;5.90;;
18503;SDS011;9381;54.244;10.074;2023-04-03T06:11:55;10.50;;;6.43;;
18503;SDS011;9381;54.244;10.074;2023-04-03T06:16:58;8.73;;;6.40;;
18503;SDS011;9381;54.244;10.074;2023-04-03T06:21:59;9.13;;;6.80;;
18503;SDS011;9381;54.244;10.074;2023-04-03T06:27:00;10.03;;;6.40;;
18503;SDS011;9381;54.244;10.074;2023-04-03T06:32:00;20.25;;;12.13;;
18503;SDS011;9381;54.244;10.074;2023-04-03T06:37:00;10.67;;;7.43;;
18503;SDS011;9381;54.244;10.074;2023-04-03T06:42:01;13.20;;;7.75;;
18503;SDS011;9381;54.244;10.074;2023-04-03T06:47:01;13.35;;;6.10;;
18503;SDS011;9381;54.244;10.074;2023-04-03T06:52:01;9.27;;;5.67;;
18503;SDS011;9381;54.244;10.074;2023-04-03T06:57:02;9.43;;;5.07;;
18503;SDS011;9381;54.244;10.074;2023-04-03T07:02:02;7.07;;;3.77;;
18503;SDS011;9381;54.244;10.074;2023-04-03T07:07:03;8.60;;;3.90;;
18503;SDS011;9381;54.244;10.074;2023-04-03T07:12:04;6.33;;;3.10;;
18503;SDS011;9381;54.244;10.074;2023-04-03T07:17:05;9.83;;;3.47;;
18503;SDS011;9381;54.244;10.074;2023-04-03T07:22:05;17.15;;;6.15;;
18503;SDS011;9381;54.244;10.074;2023-04-03T07:27:06;8.63;;;3.90;;
18503;SDS011;9381;54.244;10.074;2023-04-03T07:32:08;6.63;;;3.37;;
18503;SDS011;9381;54.244;10.074;2023-04-03T07:37:08;8.83;;;3.33;;
18503;SDS011;9381;54.244;10.074;2023-04-03T07:42:09;9.20;;;3.97;;
18503;SDS011;9381;54.244;10.074;2023-04-03T07:47:10;6.47;;;2.97;;
18503;SDS011;9381;54.244;10.074;2023-04-03T07:52:10;7.77;;;2.70;;
18503;SDS011;9381;54.244;10.074;2023-04-03T07:57:11;9.30;;;2.87;;
18503;SDS011;9381;54.244;10.074;2023-04-03T08:02:11;6.97;;;2.40;;
18503;SDS011;9381;54.244;10.074;2023-04-03T08:07:12;5.53;;;1.70;;
18503;SDS011;9381;54.244;10.074;2023-04-03T08:12:12;3.10;;;1.90;;
18503;SDS011;9381;54.244;10.074;2023-04-03T08:17:14;3.07;;;1.57;;
18503;SDS011;9381;54.244;10.074;2023-04-03T08:22:14;4.27;;;1.70;;
18503;SDS011;9381;54.244;10.074;2023-04-03T08:27:15;3.97;;;1.50;;
18503;SDS011;9381;54.244;10.074;2023-04-03T08:32:16;2.77;;;1.70;;
18503;SDS011;9381;54.244;10.074;2023-04-03T08:37:16;4.30;;;1.20;;
18503;SDS011;9381;54.244;10.074;2023-04-03T08:48:08;5.50;;;1.53;;
18503;SDS011;9381;54.244;10.074;2023-04-03T08:53:15;2.63;;;1.10;;
18503;SDS011;9381;54.244;10.074;2023-04-03T08:58:19;2.77;;;1.30;;
18503;SDS011;9381;54.244;10.074;2023-04-03T09:03:21;1.73;;;1.23;;
18503;SDS011;9381;54.244;10.074;2023-04-03T09:08:29;3.17;;;1.50;;
18503;SDS011;9381;54.244;10.074;2023-04-03T09:13:34;3.57;;;1.37;;
18503;SDS011;9381;54.244;10.074;2023-04-03T09:18:42;5.23;;;1.63;;
18503;SDS011;9381;54.244;10.074;2023-04-03T09:23:47;80.90;;;4.97;;
18503;SDS011;9381;54.244;10.074;2023-04-03T09:28:51;2.93;;;1.67;;
18503;SDS011;9381;54.244;10.074;2023-04-03T09:33:59;3.27;;;1.50;;
18503;SDS011;9381;54.244;10.074;2023-04-03T09:39:04;3.17;;;1.30;;
18503;SDS011;9381;54.244;10.074;2023-04-03T09:44:17;2.20;;;1.63;;
18503;SDS011;9381;54.244;10.074;2023-04-03T09:49:22;2.27;;;1.10;;
18503;SDS011;9381;54.244;10.074;2023-04-03T09:54:33;4.37;;;2.13;;
18503;SDS011;9381;54.244;10.074;2023-04-03T09:59:44;5.87;;;1.67;;
18503;SDS011;9381;54.244;10.074;2023-04-03T10:05:24;3.40;;;1.40;;
18503;SDS011;9381;54.244;10.074;2023-04-03T10:10:25;2.70;;;1.70;;
18503;SDS011;9381;54.244;10.074;2023-04-03T10:15:26;6.03;;;1.63;;
18503;SDS011;9381;54.244;10.074;2023-04-03T10:20:36;2.97;;;1.43;;
18503;SDS011;9381;54.244;10.074;2023-04-03T10:25:52;3.07;;;1.33;;
18503;SDS011;9381;54.244;10.074;2023-04-03T10:30:58;3.17;;;1.40;;
18503;SDS011;9381;54.244;10.074;2023-04-03T10:46:53;6.20;;;2.17;;
18503;SDS011;9381;54.244;10.074;2023-04-03T10:52:12;2.60;;;1.20;;
18503;SDS011;9381;54.244;10.074;2023-04-03T10:57:17;2.40;;;1.17;;
18503;SDS011;9381;54.244;10.074;2023-04-03T11:02:23;3.80;;;1.50;;
18503;SDS011;9381;54.244;10.074;2023-04-03T11:07:26;2.83;;;1.60;;
18503;SDS011;9381;54.244;10.074;2023-04-03T11:17:41;4.63;;;1.60;;
18503;SDS011;9381;54.244;10.074;2023-04-03T11:23:00;4.93;;;1.30;;
18503;SDS011;9381;54.244;10.074;2023-04-03T11:28:05;3.93;;;1.40;;
18503;SDS011;9381;54.244;10.074;2023-04-03T11:33:21;4.53;;;1.50;;
18503;SDS011;9381;54.244;10.074;2023-04-03T11:38:43;3.27;;;1.20;;
18503;SDS011;9381;54.244;10.074;2023-04-03T11:49:00;3.10;;;1.50;;
18503;SDS011;9381;54.244;10.074;2023-04-03T11:59:43;5.60;;;2.70;;
18503;SDS011;9381;54.244;10.074;2023-04-03T12:04:44;6.70;;;2.88;;
18503;SDS011;9381;54.244;10.074;2023-04-03T12:10:22;6.60;;;1.60;;
18503;SDS011;9381;54.244;10.074;2023-04-03T12:15:24;5.97;;;1.33;;
18503;SDS011;9381;54.244;10.074;2023-04-03T12:25:49;2.47;;;1.20;;
18503;SDS011;9381;54.244;10.074;2023-04-03T12:30:51;5.63;;;1.50;;
18503;SDS011;9381;54.244;10.074;2023-04-03T12:36:10;4.43;;;1.43;;
18503;SDS011;9381;54.244;10.074;2023-04-03T12:41:31;3.37;;;1.43;;
18503;SDS011;9381;54.244;10.074;2023-04-03T12:46:42;3.73;;;1.70;;
18503;SDS011;9381;54.244;10.074;2023-04-03T12:51:45;4.03;;;1.20;;
18503;SDS011;9381;54.244;10.074;2023-04-03T12:56:47;4.23;;;1.50;;
18503;SDS011;9381;54.244;10.074;2023-04-03T13:01:58;1.73;;;1.27;;
18503;SDS011;9381;54.244;10.074;2023-04-03T13:07:00;3.93;;;1.37;;
18503;SDS011;9381;54.244;10.074;2023-04-03T13:12:02;3.87;;;1.37;;
18503;SDS011;9381;54.244;10.074;2023-04-03T13:17:13;3.13;;;1.23;;
18503;SDS011;9381;54.244;10.074;2023-04-03T13:27:38;2.97;;;1.20;;
18503;SDS011;9381;54.244;10.074;2023-04-03T13:32:42;5.33;;;1.17;;
18503;SDS011;9381;54.244;10.074;2023-04-03T13:37:54;3.63;;;1.10;;
18503;SDS011;9381;54.244;10.074;2023-04-03T13:43:00;4.00;;;1.73;;
18503;SDS011;9381;54.244;10.074;2023-04-03T13:48:18;3.53;;;1.77;;
18503;SDS011;9381;54.244;10.074;2023-04-03T13:53:20;3.37;;;1.40;;
18503;SDS011;9381;54.244;10.074;2023-04-03T13:58:22;3.67;;;1.30;;
18503;SDS011;9381;54.244;10.074;2023-04-03T14:03:31;7.23;;;1.70;;
18503;SDS011;9381;54.244;10.074;2023-04-03T14:08:52;3.17;;;1.60;;
18503;SDS011;9381;54.244;10.074;2023-04-03T14:13:53;2.97;;;1.70;;
18503;SDS011;9381;54.244;10.074;2023-04-03T14:18:55;3.77;;;1.90;;
18503;SDS011;9381;54.244;10.074;2023-04-03T14:23:56;3.60;;;1.50;;
18503;SDS011;9381;54.244;10.074;2023-04-03T14:28:56;3.77;;;1.57;;
18503;SDS011;9381;54.244;10.074;2023-04-03T14:33:57;4.77;;;1.40;;
18503;SDS011;9381;54.244;10.074;2023-04-03T14:38:57;6.60;;;1.90;;
18503;SDS011;9381;54.244;10.074;2023-04-03T14:43:59;3.30;;;1.60;;
18503;SDS011;9381;54.244;10.074;2023-04-03T14:49:00;4.67;;;1.90;;
18503;SDS011;9381;54.244;10.074;2023-04-03T14:54:00;9.03;;;2.43;;
18503;SDS011;9381;54.244;10.074;2023-04-03T14:59:01;7.40;;;1.90;;
18503;SDS011;9381;54.244;10.074;2023-04-03T15:04:05;4.47;;;1.57;;
18503;SDS011;9381;54.244;10.074;2023-04-03T15:09:14;6.57;;;1.60;;
18503;SDS011;9381;54.244;10.074;2023-04-03T15:14:20;2.43;;;1.43;;
18503;SDS011;9381;54.244;10.074;2023-04-03T15:19:21;2.33;;;1.50;;
18503;SDS011;9381;54.244;10.074;2023-04-03T15:24:23;2.57;;;1.70;;
18503;SDS011;9381;54.244;10.074;2023-04-03T15:29:23;5.17;;;1.63;;
18503;SDS011;9381;54.244;10.074;2023-04-03T15:34:23;4.43;;;1.67;;
18503;SDS011;9381;54.244;10.074;2023-04-03T15:39:24;2.87;;;1.83;;
18503;SDS011;9381;54.244;10.074;2023-04-03T15:44:25;2.37;;;1.90;;
18503;SDS011;9381;54.244;10.074;2023-04-03T15:49:26;3.27;;;1.90;;
18503;SDS011;9381;54.244;10.074;2023-04-03T15:54:27;5.67;;;2.47;;
18503;SDS011;9381;54.244;10.074;2023-04-03T15:59:29;4.27;;;1.83;;
18503;SDS011;9381;54.244;10.074;2023-04-03T16:04:32;6.00;;;2.20;;
18503;SDS011;9381;54.244;10.074;2023-04-03T16:09:33;4.73;;;2.10;;
18503;SDS011;9381;54.244;10.074;2023-04-03T16:14:35;4.73;;;1.90;;
18503;SDS011;9381;54.244;10.074;2023-04-03T16:19:36;4.30;;;2.47;;
18503;SDS011;9381;54.244;10.074;2023-04-03T16:24:36;4.27;;;2.13;;
18503;SDS011;9381;54.244;10.074;2023-04-03T16:29:38;4.87;;;1.87;;
18503;SDS011;9381;54.244;10.074;2023-04-03T16:34:38;2.80;;;2.10;;
18503;SDS011;9381;54.244;10.074;2023-04-03T16:39:40;6.07;;;2.20;;
18503;SDS011;9381;54.244;10.074;2023-04-03T16:44:40;3.67;;;2.03;;
18503;SDS011;9381;54.244;10.074;2023-04-03T16:49:40;3.08;;;1.70;;
18503;SDS011;9381;54.244;10.074;2023-04-03T16:54:41;6.57;;;1.98;;
18503;SDS011;9381;54.244;10.074;2023-04-03T17:05:38;4.53;;;2.07;;
18503;SDS011;9381;54.244;10.074;2023-04-03T17:10:38;4.10;;;2.20;;
18503;SDS011;9381;54.244;10.074;2023-04-03T17:15:39;4.00;;;2.10;;
18503;SDS011;9381;54.244;10.074;2023-04-03T17:20:39;7.80;;;2.25;;
18503;SDS011;9381;54.244;10.074;2023-04-03T17:25:40;6.53;;;2.50;;
18503;SDS011;9381;54.244;10.074;2023-04-03T17:30:40;5.47;;;1.70;;
18503;SDS011;9381;54.244;10.074;2023-04-03T17:35:40;3.03;;;1.70;;
18503;SDS011;9381;54.244;10.074;2023-04-03T17:40:41;4.65;;;1.90;;
18503;SDS011;9381;54.244;10.074;2023-04-03T17:45:41;4.10;;;1.80;;
18503;SDS011;9381;54.244;10.074;2023-04-03T17:50:42;2.87;;;1.73;;
18503;SDS011;9381;54.244;10.074;2023-04-03T17:55:42;3.97;;;1.53;;
18503;SDS011;9381;54.244;10.074;2023-04-03T18:00:42;3.75;;;1.70;;
18503;SDS011;9381;54.244;10.074;2023-04-03T18:05:42;2.83;;;1.42;;
18503;SDS011;9381;54.244;10.074;2023-04-03T18:10:43;2.07;;;1.83;;
18503;SDS011;9381;54.244;10.074;2023-04-03T18:15:43;1.87;;;1.50;;
18503;SDS011;9381;54.244;10.074;2023-04-03T18:20:44;2.93;;;1.87;;
18503;SDS011;9381;54.244;10.074;2023-04-03T18:25:45;3.73;;;1.97;;
18503;SDS011;9381;54.244;10.074;2023-04-03T18:30:45;4.00;;;2.50;;
18503;SDS011;9381;54.244;10.074;2023-04-03T18:35:46;5.87;;;1.80;;
18503;SDS011;9381;54.244;10.074;2023-04-03T18:40:46;4.70;;;1.88;;
18503;SDS011;9381;54.244;10.074;2023-04-03T18:45:48;5.13;;;2.23;;
18503;SDS011;9381;54.244;10.074;2023-04-03T18:50:49;4.13;;;1.97;;
18503;SDS011;9381;54.244;10.074;2023-04-03T18:55:49;4.07;;;2.00;;
18503;SDS011;9381;54.244;10.074;2023-04-03T19:00:50;2.57;;;1.50;;
18503;SDS011;9381;54.244;10.074;2023-04-03T19:05:50;4.23;;;1.97;;
18503;SDS011;9381;54.244;10.074;2023-04-03T19:10:50;5.03;;;2.10;;
18503;SDS011;9381;54.244;10.074;2023-04-03T19:15:51;4.33;;;1.97;;
18503;SDS011;9381;54.244;10.074;2023-04-03T19:20:53;4.20;;;1.87;;
18503;SDS011;9381;54.244;10.074;2023-04-03T19:26:02;3.10;;;2.30;;
18503;SDS011;9381;54.244;10.074;2023-04-03T19:31:11;3.63;;;2.10;;
18503;SDS011;9381;54.244;10.074;2023-04-03T19:36:13;6.07;;;2.37;;
18503;SDS011;9381;54.244;10.074;2023-04-03T19:41:16;4.97;;;2.47;;
18503;SDS011;9381;54.244;10.074;2023-04-03T19:46:25;5.93;;;2.73;;
18503;SDS011;9381;54.244;10.074;2023-04-03T19:51:27;5.73;;;2.60;;
18503;SDS011;9381;54.244;10.074;2023-04-03T19:56:28;4.23;;;2.50;;
18503;SDS011;9381;54.244;10.074;2023-04-03T20:01:28;7.35;;;4.65;;
18503;SDS011;9381;54.244;10.074;2023-04-03T20:06:30;10.93;;;7.47;;
18503;SDS011;9381;54.244;10.074;2023-04-03T20:11:32;8.60;;;5.70;;
18503;SDS011;9381;54.244;10.074;2023-04-03T20:16:33;9.00;;;3.27;;
18503;SDS011;9381;54.244;10.074;2023-04-03T20:21:34;5.20;;;2.70;;
18503;SDS011;9381;54.244;10.074;2023-04-03T20:26:35;10.60;;;6.50;;
18503;SDS011;9381;54.244;10.074;2023-04-03T20:31:45;13.60;;;8.03;;
18503;SDS011;9381;54.244;10.074;2023-04-03T20:36:45;12.53;;;6.57;;
18503;SDS011;9381;54.244;10.074;2023-04-03T20:41:46;9.00;;;3.80;;
18503;SDS011;9381;54.244;10.074;2023-04-03T20:46:47;5.23;;;3.40;;
18503;SDS011;9381;54.244;10.074;2023-04-03T20:51:48;5.87;;;3.73;;
18503;SDS011;9381;54.244;10.074;2023-04-03T20:56:50;5.43;;;3.27;;
18503;SDS011;9381;54.244;10.074;2023-04-03T21:01:50;5.97;;;2.60;;
18503;SDS011;9381;54.244;10.074;2023-04-03T21:23:07;5.25;;;3.03;;
18503;SDS011;9381;54.244;10.074;2023-04-03T21:28:07;3.55;;;2.60;;
18503;SDS011;9381;54.244;10.074;2023-04-03T21:33:08;5.00;;;3.30;;
18503;SDS011;9381;54.244;10.074;2023-04-03T21:38:08;6.70;;;2.70;;
18503;SDS011;9381;54.244;10.074;2023-04-03T21:43:08;6.85;;;2.88;;
18503;SDS011;9381;54.244;10.074;2023-04-03T21:48:08;3.93;;;2.80;;
18503;SDS011;9381;54.244;10.074;2023-04-03T21:53:09;7.53;;;3.20;;
18503;SDS011;9381;54.244;10.074;2023-04-03T21:58:10;4.43;;;2.80;;
18503;SDS011;9381;54.244;10.074;2023-04-03T22:03:10;5.20;;;2.90;;
18503;SDS011;9381;54.244;10.074;2023-04-03T22:08:12;5.27;;;2.60;;
18503;SDS011;9381;54.244;10.074;2023-04-03T22:13:13;5.90;;;2.43;;
18503;SDS011;9381;54.244;10.074;2023-04-03T22:18:13;5.93;;;2.50;;
18503;SDS011;9381;54.244;10.074;2023-04-03T22:23:13;5.63;;;2.60;;
18503;SDS011;9381;54.244;10.074;2023-04-03T22:28:14;4.37;;;2.20;;
18503;SDS011;9381;54.244;10.074;2023-04-03T22:33:15;4.57;;;2.37;;
18503;SDS011;9381;54.244;10.074;2023-04-03T22:38:16;3.33;;;2.40;;
18503;SDS011;9381;54.244;10.074;2023-04-03T22:43:16;4.47;;;2.30;;
18503;SDS011;9381;54.244;10.074;2023-04-03T22:48:17;4.97;;;2.07;;
18503;SDS011;9381;54.244;10.074;2023-04-03T22:53:18;5.70;;;2.43;;
18503;SDS011;9381;54.244;10.074;2023-04-03T22:58:18;5.50;;;2.67;;
18503;SDS011;9381;54.244;10.074;2023-04-03T23:03:23;4.23;;;2.40;;
18503;SDS011;9381;54.244;10.074;2023-04-03T23:08:23;4.07;;;2.50;;
18503;SDS011;9381;54.244;10.074;2023-04-03T23:13:24;5.27;;;2.70;;
18503;SDS011;9381;54.244;10.074;2023-04-03T23:18:25;4.83;;;2.53;;
18503;SDS011;9381;54.244;10.074;2023-04-03T23:23:29;2.33;;;2.13;;
18503;SDS011;9381;54.244;10.074;2023-04-03T23:28:30;5.90;;;2.50;;
18503;SDS011;9381;54.244;10.074;2023-04-03T23:33:30;5.33;;;2.40;;
18503;SDS011;9381;54.244;10.074;2023-04-03T23:38:31;4.37;;;2.80;;
18503;SDS011;9381;54.244;10.074;2023-04-03T23:43:31;6.95;;;3.08;;
18503;SDS011;9381;54.244;10.074;2023-04-03T23:48:31;4.17;;;3.00;;
18503;SDS011;9381;54.244;10.074;2023-04-03T23:53:32;3.72;;;2.28;;
18503;SDS011;9381;54.244;10.074;2023-04-03T23:58:32;7.22;;;2.90;;
